Time;durP1;ratioP1;P1;durP2;ratioP2;P2;SDS_P1;SDS_P2;PMS_P1;PMS_P2;Temp;Humidity;BMP_temperature;BMP_pressure;BME280_temperature;BME280_humidity;BME280_pressure;Samples;Min_cycle;Max_cycle;Signal;HPM_P1;HPM_P2
2022/03/20 00:01:16;;;;;;;23.85;12.68;;;;;;;6.72;72.90;101176.69;5093646;28;20031;-62
2022/03/20 00:03:42;;;;;;;25.67;12.45;;;;;;;6.62;73.07;101181.03;5093936;28;20547;-62
2022/03/20 00:06:07;;;;;;;24.83;12.25;;;;;;;6.59;73.57;101170.47;5104127;28;20023;-62
2022/03/20 00:08:33;;;;;;;23.80;13.30;;;;;;;6.56;73.03;101174.88;5095947;28;20028;-62
2022/03/20 00:11:02;;;;;;;20.15;12.75;;;;;;;6.62;72.69;101175.75;5095625;28;20076;-62
2022/03/20 00:13:28;;;;;;;22.80;12.32;;;;;;;6.60;72.72;101171.38;5093646;28;20039;-62
2022/03/20 00:15:57;;;;;;;22.08;13.77;;;;;;;6.56;73.24;101165.19;5093416;28;20044;-62
2022/03/20 00:18:26;;;;;;;24.35;13.32;;;;;;;6.54;73.49;101171.31;5112683;28;20047;-62
2022/03/20 00:20:54;;;;;;;24.75;13.95;;;;;;;6.49;72.69;101173.97;5107807;28;20016;-62
2022/03/20 00:23:23;;;;;;;24.83;13.43;;;;;;;6.45;72.98;101160.75;5095818;28;20024;-62
2022/03/20 00:25:50;;;;;;;24.48;12.88;;;;;;;6.39;73.16;101155.47;5093086;28;20070;-62
2022/03/20 00:28:19;;;;;;;26.83;13.07;;;;;;;6.40;73.10;101155.47;5093094;28;20027;-62
2022/03/20 00:30:45;;;;;;;25.80;12.95;;;;;;;6.40;73.87;101155.47;5092718;28;20113;-62
2022/03/20 00:33:11;;;;;;;24.85;13.80;;;;;;;6.38;72.83;101148.41;5095836;28;20031;-62
2022/03/20 00:35:37;;;;;;;21.60;13.50;;;;;;;6.41;73.22;101151.94;5092114;28;20049;-62
2022/03/20 00:38:06;;;;;;;26.75;13.23;;;;;;;6.46;73.23;101144.00;5093188;28;20027;-62
2022/03/20 00:40:31;;;;;;;27.35;13.98;;;;;;;6.50;72.60;101132.56;5092586;28;20046;-62
2022/03/20 00:42:57;;;;;;;26.75;14.73;;;;;;;6.53;72.69;101137.84;5099643;28;20059;-63
2022/03/20 00:45:22;;;;;;;24.00;13.25;;;;;;;6.48;72.32;101113.19;5092539;28;20028;-63
2022/03/20 00:47:48;;;;;;;23.52;12.95;;;;;;;6.59;72.90;101129.94;5092641;28;20084;-63
2022/03/20 00:50:14;;;;;;;25.15;12.82;;;;;;;6.58;72.28;101126.44;5091567;28;20028;-63
2022/03/20 00:52:40;;;;;;;24.50;13.68;;;;;;;6.65;72.53;101116.75;5092872;28;20032;-63
2022/03/20 00:55:06;;;;;;;25.25;13.40;;;;;;;6.63;72.21;101134.34;5095287;28;20032;-63
2022/03/20 00:57:31;;;;;;;25.70;13.30;;;;;;;6.66;72.89;101132.59;5092293;28;20055;-63
2022/03/20 00:59:56;;;;;;;25.42;14.50;;;;;;;6.67;71.65;101136.13;5092406;28;20069;-62
2022/03/20 01:02:22;;;;;;;29.15;14.43;;;;;;;6.71;72.23;101135.25;5093675;28;20172;-62
2022/03/20 01:04:48;;;;;;;23.38;13.20;;;;;;;6.73;72.04;101130.84;5095005;28;20032;-62
2022/03/20 01:07:14;;;;;;;25.77;13.52;;;;;;;6.72;71.97;101129.09;5092445;28;20032;-62
2022/03/20 01:09:39;;;;;;;23.15;12.95;;;;;;;6.68;71.05;101107.06;5092266;28;20027;-62
2022/03/20 01:12:08;;;;;;;26.17;13.95;;;;;;;6.80;71.48;101121.16;5092406;28;20035;-62
2022/03/20 01:14:34;;;;;;;27.10;14.48;;;;;;;6.83;72.13;101114.09;5092375;28;20016;-62
2022/03/20 01:17:00;;;;;;;24.73;14.32;;;;;;;6.84;72.00;101113.22;5099471;28;20039;-62
2022/03/20 01:19:26;;;;;;;26.20;12.70;;;;;;;6.86;70.65;101123.78;5112070;28;20699;-62
2022/03/20 01:21:54;;;;;;;27.65;15.00;;;;;;;6.84;70.89;101126.44;5112550;28;20024;-62
2022/03/20 01:24:21;;;;;;;28.38;13.82;;;;;;;6.90;70.40;101112.34;5099865;28;20093;-62
2022/03/20 01:26:46;;;;;;;25.17;14.10;;;;;;;6.95;71.08;101116.75;5091675;28;20028;-62
2022/03/20 01:29:12;;;;;;;25.83;13.77;;;;;;;7.03;71.08;101116.72;5090549;28;20089;-62
2022/03/20 01:31:38;;;;;;;27.67;14.38;;;;;;;7.02;70.71;101114.97;5073991;28;20034;-62
2022/03/20 01:34:04;;;;;;;26.38;14.68;;;;;;;7.08;69.71;101122.91;5091277;28;20032;-62
2022/03/20 01:36:30;;;;;;;24.88;13.32;;;;;;;7.08;69.50;101107.03;5091499;28;20024;-62
2022/03/20 01:38:56;;;;;;;23.52;12.65;;;;;;;7.03;69.19;101103.50;5098679;28;20043;-62
2022/03/20 01:41:22;;;;;;;24.55;13.32;;;;;;;7.02;69.09;101099.97;5100220;28;20026;-62
2022/03/20 01:43:53;;;;;;;22.98;12.68;;;;;;;7.02;68.10;101099.97;5092345;28;20020;-62
2022/03/20 01:46:19;;;;;;;25.85;12.52;;;;;;;7.07;67.32;101095.56;5090488;28;20039;-63
2022/03/20 01:48:45;;;;;;;20.02;12.30;;;;;;;6.99;67.16;101070.88;5090046;28;20024;-62
2022/03/20 01:51:11;;;;;;;26.67;13.48;;;;;;;7.17;67.87;101086.72;5091369;28;20089;-62
2022/03/20 01:53:37;;;;;;;25.50;12.88;;;;;;;7.19;66.74;101084.97;5091764;28;20028;-62
2022/03/20 01:56:03;;;;;;;22.50;12.30;;;;;;;7.22;66.42;101090.25;5091358;28;20092;-62
2022/03/20 01:58:29;;;;;;;21.48;11.63;;;;;;;7.06;65.91;101067.34;5091571;28;20085;-62
2022/03/20 02:00:54;;;;;;;24.08;12.77;;;;;;;7.10;66.11;101086.75;5089929;28;20475;-62
2022/03/20 02:03:20;;;;;;;22.40;11.80;;;;;;;7.14;65.29;101091.13;5093297;28;20566;-62
2022/03/20 02:05:45;;;;;;;20.67;12.27;;;;;;;7.16;65.37;101095.56;5091487;28;20040;-62
2022/03/20 02:08:14;;;;;;;22.20;13.30;;;;;;;7.19;67.13;101092.91;5091608;28;20082;-62
2022/03/20 02:10:40;;;;;;;23.85;12.95;;;;;;;7.14;66.13;101086.75;5090633;28;20039;-62
2022/03/20 02:13:06;;;;;;;21.95;12.93;;;;;;;7.10;66.37;101084.97;5091440;28;20483;-63
2022/03/20 02:15:32;;;;;;;24.25;12.73;;;;;;;7.06;65.37;101083.22;5093247;28;20088;-63
2022/03/20 02:17:58;;;;;;;23.30;13.80;;;;;;;7.09;65.78;101080.56;5106561;28;20102;-63
2022/03/20 02:20:24;;;;;;;24.50;12.73;;;;;;;7.20;65.28;101075.28;5099636;28;20593;-63
2022/03/20 02:22:49;;;;;;;20.73;12.32;;;;;;;7.17;64.98;101076.16;5090991;28;20399;-63
2022/03/20 02:25:17;;;;;;;23.30;13.43;;;;;;;7.15;65.09;101077.03;5091014;28;20110;-63
2022/03/20 02:27:44;;;;;;;24.67;13.20;;;;;;;7.16;66.22;101077.03;5091760;28;20020;-63
2022/03/20 02:30:13;;;;;;;25.95;13.25;;;;;;;7.09;66.45;101067.34;5106019;28;20384;-63
2022/03/20 02:32:47;;;;;;;22.95;12.32;;;;;;;7.07;65.15;101069.09;5094500;28;20024;-63
2022/03/20 02:35:15;;;;;;;25.13;13.05;;;;;;;7.10;65.16;101058.50;5090501;28;20036;-63
2022/03/20 02:37:46;;;;;;;22.95;12.43;;;;;;;7.09;66.16;101056.75;5090717;28;20023;-63
2022/03/20 02:40:13;;;;;;;21.10;12.40;;;;;;;7.13;65.04;101068.22;5090243;28;20024;-63
2022/03/20 02:42:41;;;;;;;23.30;12.15;;;;;;;7.18;65.02;101061.16;5097383;28;20035;-63
2022/03/20 02:45:09;;;;;;;24.63;12.48;;;;;;;7.18;65.19;101064.66;5091115;28;20102;-63
2022/03/20 02:47:39;;;;;;;25.52;12.23;;;;;;;7.12;63.63;101067.34;5090127;28;20066;-63
2022/03/20 02:50:09;;;;;;;23.00;13.10;;;;;;;7.14;63.48;101056.75;5090238;28;20035;-63
2022/03/20 02:52:51;;;;;;;21.48;13.90;;;;;;;7.14;64.34;101060.28;5091105;28;20047;-63
2022/03/20 02:55:30;;;;;;;23.25;12.80;;;;;;;7.13;65.13;101058.53;5090389;28;20027;-63
2022/03/20 02:57:57;;;;;;;22.55;13.40;;;;;;;7.13;65.40;101055.88;5090442;28;20077;-63
2022/03/20 03:00:26;;;;;;;23.10;12.35;;;;;;;7.18;64.98;101051.44;5092439;28;20095;-62
2022/03/20 03:02:56;;;;;;;25.05;12.80;;;;;;;7.20;64.49;101049.69;5092592;28;20497;-62
2022/03/20 03:05:25;;;;;;;22.83;13.05;;;;;;;7.19;65.52;101050.56;5090154;28;20024;-62
2022/03/20 03:11:01;;;;;;;24.23;12.70;;;;;;;7.20;65.80;101054.97;5089785;28;20074;-62
2022/03/20 03:13:38;;;;;;;24.13;12.85;;;;;;;7.14;64.12;101060.28;5088630;28;20103;-62
2022/03/20 03:16:08;;;;;;;26.90;13.32;;;;;;;7.08;63.89;101040.91;5090035;28;20042;-62
2022/03/20 03:18:36;;;;;;;26.15;12.18;;;;;;;7.10;63.93;101045.28;5089583;28;20190;-62
2022/03/20 03:21:02;;;;;;;24.90;13.77;;;;;;;7.04;64.76;101037.38;5089705;28;20035;-62
2022/03/20 03:23:28;;;;;;;25.63;13.55;;;;;;;7.07;63.93;101047.09;5090369;28;20035;-62
2022/03/20 03:25:55;;;;;;;24.00;12.48;;;;;;;7.05;63.89;101049.69;5090072;28;20024;-62
2022/03/20 03:28:22;;;;;;;22.27;12.82;;;;;;;7.06;63.87;101062.06;5089595;28;20463;-62
2022/03/20 03:30:48;;;;;;;24.00;11.80;;;;;;;6.96;63.92;101060.31;5089484;28;20028;-62
2022/03/20 03:33:17;;;;;;;22.40;12.13;;;;;;;6.91;65.30;101062.09;5092579;28;20493;-62
2022/03/20 03:35:44;;;;;;;26.95;12.43;;;;;;;6.85;66.10;101064.75;5089192;28;20024;-62
2022/03/20 03:38:18;;;;;;;26.50;13.40;;;;;;;6.91;67.73;101051.50;5090051;28;20046;-62
2022/03/20 03:40:45;;;;;;;26.70;13.02;;;;;;;6.93;66.99;101059.44;5089698;28;20024;-62
2022/03/20 03:43:12;;;;;;;22.13;13.27;;;;;;;6.92;66.21;101058.53;5089674;28;20107;-62
2022/03/20 03:45:41;;;;;;;20.58;12.25;;;;;;;6.94;66.61;101062.06;5090227;28;20069;-62
2022/03/20 03:48:08;;;;;;;24.55;13.25;;;;;;;6.91;66.24;101066.47;5089541;28;20028;-62
2022/03/20 03:50:36;;;;;;;23.13;13.32;;;;;;;6.76;66.43;101056.81;5089396;28;20031;-62
2022/03/20 03:53:03;;;;;;;22.17;13.30;;;;;;;6.81;65.80;101057.69;5090038;28;20032;-62
2022/03/20 03:55:30;;;;;;;21.45;11.88;;;;;;;6.68;66.36;101062.13;5089538;28;20440;-62
2022/03/20 03:57:55;;;;;;;24.92;13.48;;;;;;;6.60;67.19;101060.34;5089752;28;20394;-62
2022/03/20 04:00:21;;;;;;;22.30;12.85;;;;;;;6.50;67.94;101058.56;5089288;28;20020;-63
2022/03/20 04:02:48;;;;;;;20.15;12.35;;;;;;;6.43;69.29;101059.44;5089981;28;20031;-63
2022/03/20 04:05:15;;;;;;;26.65;13.60;;;;;;;6.32;69.43;101064.75;5089595;28;20020;-63
2022/03/20 04:07:41;;;;;;;21.45;12.75;;;;;;;6.13;69.57;101070.84;5089627;28;20028;-63
2022/03/20 04:10:07;;;;;;;18.33;11.30;;;;;;;6.07;69.57;101077.88;5089344;28;20356;-63
2022/03/20 04:12:36;;;;;;;25.30;11.93;;;;;;;5.93;69.81;101079.63;5091773;28;20024;-63
2022/03/20 04:15:04;;;;;;;23.73;12.50;;;;;;;5.86;71.20;101088.38;5089748;28;20092;-63
2022/03/20 04:17:30;;;;;;;22.65;12.48;;;;;;;5.89;71.87;101089.28;5101114;28;20096;-63
2022/03/20 04:19:57;;;;;;;21.30;13.07;;;;;;;5.77;72.18;101089.19;5095528;28;20036;-63
2022/03/20 04:22:22;;;;;;;24.88;12.05;;;;;;;5.71;73.31;101091.81;5088237;28;20140;-63
2022/03/20 04:24:49;;;;;;;20.65;12.23;;;;;;;5.63;73.56;101084.75;5090272;28;20056;-63
2022/03/20 04:27:14;;;;;;;21.67;11.95;;;;;;;5.46;73.96;101082.03;5092764;28;20031;-63
2022/03/20 04:29:40;;;;;;;21.55;13.07;;;;;;;5.42;74.96;101096.06;5093346;28;20024;-63
2022/03/20 04:32:06;;;;;;;27.45;13.02;;;;;;;5.47;74.70;101093.47;5093682;28;20027;-63
2022/03/20 04:34:31;;;;;;;23.55;13.85;;;;;;;5.37;73.67;101092.50;5096822;28;20490;-63
2022/03/20 04:36:57;;;;;;;23.48;12.88;;;;;;;5.39;74.08;101090.78;5102610;28;20024;-63
2022/03/20 04:39:25;;;;;;;21.33;12.25;;;;;;;5.32;73.82;101091.63;5112999;28;20020;-63
2022/03/20 04:41:51;;;;;;;22.17;13.65;;;;;;;5.36;74.56;101091.66;5099813;28;20023;-63
2022/03/20 04:44:17;;;;;;;24.52;13.88;;;;;;;5.38;75.24;101099.56;5092692;28;20031;-63
2022/03/20 04:46:42;;;;;;;23.05;12.82;;;;;;;5.29;76.07;101097.75;5095035;28;20034;-63
2022/03/20 05:00:06;;;;;;;26.65;12.93;;;;;;;5.18;74.67;101117.03;5112687;28;20079;-62
2022/03/20 05:02:31;;;;;;;26.67;13.20;;;;;;;5.08;74.82;101102.91;5113217;28;20539;-62
2022/03/20 05:04:57;;;;;;;30.30;13.30;;;;;;;5.10;74.57;101101.16;5109290;28;20012;-62
2022/03/20 05:07:22;;;;;;;27.13;13.07;;;;;;;5.12;74.96;101101.19;5112723;28;20157;-62
2022/03/20 05:15:15;;;;;;;22.33;13.40;;;;;;;5.12;72.70;101136.31;5092284;28;20068;-62
2022/03/20 05:17:41;;;;;;;31.98;16.60;;;;;;;5.21;73.14;101120.56;5106071;28;20059;-62
2022/03/20 05:20:07;;;;;;;32.70;14.50;;;;;;;5.24;73.94;101109.16;5093670;28;20039;-62
2022/03/20 05:22:39;;;;;;;23.67;13.13;;;;;;;5.24;74.71;101107.41;5112533;28;20019;-62
2022/03/20 05:25:08;;;;;;;28.00;14.65;;;;;;;5.22;75.34;101106.50;5112361;28;20409;-62
2022/03/20 05:27:33;;;;;;;25.63;14.20;;;;;;;5.27;76.49;101112.69;5112559;28;20019;-62
2022/03/20 05:29:59;;;;;;;25.10;13.38;;;;;;;5.40;76.74;101114.53;5112248;28;20524;-62
2022/03/20 05:32:25;;;;;;;23.02;13.63;;;;;;;5.35;74.45;101121.53;5112286;28;20062;-62
2022/03/20 05:34:51;;;;;;;19.58;12.82;;;;;;;5.25;74.85;101117.06;5111072;28;20059;-62
2022/03/20 05:37:17;;;;;;;29.35;14.43;;;;;;;5.37;74.71;101109.22;5112283;28;20067;-62
2022/03/20 05:39:45;;;;;;;27.05;14.60;;;;;;;5.63;74.09;101132.25;5096875;28;20016;-62
2022/03/20 05:42:14;;;;;;;21.67;12.88;;;;;;;5.64;71.79;101126.09;5098660;28;20058;-62
2022/03/20 05:44:40;;;;;;;27.83;14.80;;;;;;;5.72;72.50;101140.19;5091875;28;20031;-62
2022/03/20 05:47:06;;;;;;;28.48;14.45;;;;;;;5.74;72.16;101138.44;5091551;28;20056;-62
2022/03/20 05:49:32;;;;;;;28.17;14.00;;;;;;;5.87;72.60;101137.66;5091193;28;20027;-62
2022/03/20 05:51:59;;;;;;;23.90;14.38;;;;;;;5.94;73.24;101139.47;5091213;28;20083;-62
2022/03/20 05:54:24;;;;;;;24.80;12.98;;;;;;;5.93;73.62;101143.84;5091733;28;20123;-62
2022/03/20 05:59:35;;;;;;;24.83;13.77;;;;;;;5.84;74.69;101154.38;5091370;28;20115;-62
2022/03/20 06:02:01;;;;;;;24.33;12.93;;;;;;;5.52;74.95;101113.72;5091250;28;20024;-62
2022/03/20 06:04:27;;;;;;;29.60;14.07;;;;;;;5.63;75.74;101146.34;5093335;28;20024;-62
2022/03/20 06:06:52;;;;;;;24.60;11.80;;;;;;;5.70;76.50;101157.81;5091229;28;20075;-62
2022/03/20 06:09:18;;;;;;;24.15;13.60;;;;;;;5.75;76.80;101164.00;5091047;28;20020;-62
2022/03/20 06:11:43;;;;;;;23.55;13.65;;;;;;;5.73;77.16;101161.34;5091134;28;20028;-62
2022/03/20 06:14:09;;;;;;;27.67;13.00;;;;;;;5.74;77.08;101163.09;5093620;28;20487;-62
2022/03/20 06:16:35;;;;;;;24.80;13.20;;;;;;;5.75;77.09;101164.84;5093923;28;20026;-62
2022/03/20 06:19:02;;;;;;;25.77;13.95;;;;;;;5.77;76.57;101170.13;5110266;28;20050;-62
2022/03/20 06:21:27;;;;;;;24.92;13.10;;;;;;;5.90;77.77;101180.81;5111223;28;20019;-62
2022/03/20 06:23:54;;;;;;;25.33;14.38;;;;;;;5.93;76.17;101185.25;5111650;28;20029;-62
2022/03/20 06:26:24;;;;;;;23.02;12.88;;;;;;;6.01;75.15;101180.88;5110486;28;20039;-62
2022/03/20 06:28:53;;;;;;;25.00;12.57;;;;;;;6.18;74.75;101171.22;5092647;28;20020;-62
2022/03/20 06:31:19;;;;;;;26.23;13.23;;;;;;;6.34;71.19;101188.91;5090864;28;20027;-62
2022/03/20 06:33:46;;;;;;;22.83;13.15;;;;;;;6.35;70.94;101190.66;5091762;28;20098;-62
2022/03/20 06:36:12;;;;;;;25.10;14.10;;;;;;;6.45;71.78;101188.06;5089691;28;20028;-62
2022/03/20 06:38:38;;;;;;;34.65;16.23;;;;;;;6.58;72.34;101188.97;5093360;28;20158;-62
2022/03/20 06:41:06;;;;;;;45.90;20.17;;;;;;;6.68;71.23;101188.13;5092748;28;20107;-62
2022/03/20 06:43:31;;;;;;;38.17;19.33;;;;;;;6.78;71.05;101181.06;5102688;28;20474;-62
2022/03/20 06:45:57;;;;;;;42.67;20.30;;;;;;;6.91;71.50;101189.03;5110844;28;20020;-62
2022/03/20 06:48:24;;;;;;;37.88;17.90;;;;;;;6.98;68.71;101196.09;5109986;28;20083;-62
2022/03/20 06:50:50;;;;;;;28.10;16.38;;;;;;;7.03;71.32;101194.34;5110202;28;20163;-62
2022/03/20 06:53:17;;;;;;;26.90;14.35;;;;;;;6.91;69.67;101178.44;5107726;28;20054;-62
2022/03/20 06:55:43;;;;;;;25.45;13.82;;;;;;;6.95;71.17;101195.19;5110360;28;20032;-62
2022/03/20 06:58:10;;;;;;;28.05;14.98;;;;;;;6.96;71.26;101192.56;5110925;28;20031;-62
2022/03/20 07:00:36;;;;;;;21.90;13.18;;;;;;;6.96;71.73;101184.63;5104774;28;20094;-62
2022/03/20 07:03:03;;;;;;;29.50;14.57;;;;;;;6.99;73.33;101200.50;5090589;28;20028;-62
2022/03/20 07:05:33;;;;;;;26.52;14.57;;;;;;;6.80;73.88;101195.19;5090112;28;20028;-63
2022/03/20 07:08:04;;;;;;;29.83;14.25;;;;;;;6.83;74.08;101205.75;5090233;28;20027;-63
2022/03/20 07:10:29;;;;;;;29.52;14.80;;;;;;;6.87;74.52;101199.59;5089537;28;20043;-62
2022/03/20 07:13:48;;;;;;;30.65;16.83;;;;;;;7.00;73.96;101202.25;5090387;28;20387;-62
2022/03/20 07:15:43;;;;;;;31.85;17.65;;;;;;;6.99;73.93;101203.13;5090078;28;20038;-62
2022/03/20 07:18:09;;;;;;;26.85;14.55;;;;;;;7.13;75.52;101233.13;5107373;28;20039;-63
2022/03/20 07:20:36;;;;;;;24.67;13.60;;;;;;;7.05;76.72;101236.66;5110119;28;20039;-63
2022/03/20 07:23:01;;;;;;;25.33;13.98;;;;;;;7.03;76.33;101241.94;5110610;28;20020;-63
2022/03/20 07:30:58;;;;;;;24.70;13.65;;;;;;;7.23;77.92;101234.03;5110081;28;20047;-63
2022/03/20 07:33:25;;;;;;;26.92;15.10;;;;;;;7.37;77.17;101221.66;5110318;28;20386;-63
2022/03/20 07:35:50;;;;;;;21.98;12.52;;;;;;;7.53;75.86;101219.00;5109548;28;20024;-62
2022/03/20 07:38:19;;;;;;;22.63;14.25;;;;;;;7.63;74.65;101217.22;5110238;28;20076;-62
2022/03/20 07:40:44;;;;;;;26.25;12.68;;;;;;;7.76;72.92;101211.91;5101120;28;20023;-62
2022/03/20 07:43:09;;;;;;;22.25;12.80;;;;;;;7.88;72.09;101222.47;5096856;28;20024;-62
2022/03/20 07:45:35;;;;;;;26.05;14.00;;;;;;;7.94;72.00;101233.03;5089471;28;20119;-62
2022/03/20 07:48:02;;;;;;;24.45;13.93;;;;;;;7.99;70.60;101230.38;5071826;28;20031;-62
2022/03/20 07:50:28;;;;;;;23.83;13.23;;;;;;;7.99;71.34;101231.25;5089465;28;20621;-62
2022/03/20 07:52:53;;;;;;;26.48;13.98;;;;;;;7.97;71.56;101238.31;5089974;28;20106;-62
2022/03/20 07:55:22;;;;;;;20.52;13.70;;;;;;;7.98;72.44;101240.09;5089633;28;20660;-63
2022/03/20 07:57:47;;;;;;;29.15;14.48;;;;;;;8.11;73.26;101253.28;5089653;28;20032;-63
2022/03/20 08:00:13;;;;;;;24.63;13.48;;;;;;;8.25;72.91;101255.06;5093641;28;20505;-63
2022/03/20 08:02:39;;;;;;;25.60;14.00;;;;;;;8.37;72.64;101259.44;5093687;28;20035;-63
2022/03/20 08:05:04;;;;;;;26.08;15.38;;;;;;;8.49;71.59;101264.69;5093577;28;20113;-63
2022/03/20 08:07:38;;;;;;;26.33;14.43;;;;;;;8.37;72.31;101275.34;5093407;28;20089;-63
2022/03/20 08:10:07;;;;;;;27.95;14.95;;;;;;;8.40;72.41;101301.84;5096308;28;20490;-63
2022/03/20 08:12:36;;;;;;;24.90;14.35;;;;;;;8.31;72.13;101297.47;5093306;28;20032;-63
2022/03/20 08:15:03;;;;;;;25.00;14.57;;;;;;;8.44;71.86;101314.19;5093585;28;20047;-62
2022/03/20 08:17:29;;;;;;;27.10;14.48;;;;;;;8.60;71.85;101306.19;5104834;28;20061;-62
2022/03/20 08:19:58;;;;;;;27.38;13.60;;;;;;;8.77;70.60;101304.34;5098410;28;20523;-62
2022/03/20 08:22:27;;;;;;;25.17;15.25;;;;;;;8.68;67.36;101308.81;5093362;28;20055;-62
2022/03/20 08:24:52;;;;;;;24.33;13.52;;;;;;;8.77;66.90;101300.78;5093580;28;20372;-62
2022/03/20 08:27:20;;;;;;;26.65;13.63;;;;;;;8.89;67.63;101308.72;5095252;28;20031;-62
2022/03/20 08:29:46;;;;;;;22.85;13.02;;;;;;;8.88;67.96;101306.94;5092756;28;20020;-62
2022/03/20 08:32:12;;;;;;;25.50;14.88;;;;;;;8.94;68.07;101297.19;5093088;28;20484;-62
2022/03/20 08:34:37;;;;;;;21.90;13.13;;;;;;;8.88;66.71;101302.50;5096564;28;20356;-62
2022/03/20 08:37:03;;;;;;;24.08;14.88;;;;;;;8.93;68.43;101305.13;5092949;28;20037;-62
2022/03/20 08:39:28;;;;;;;26.58;13.52;;;;;;;8.94;68.29;101307.81;5092843;28;20791;-62
2022/03/20 08:41:54;;;;;;;27.52;15.27;;;;;;;8.91;68.47;101307.78;5099321;28;20012;-62
2022/03/20 08:44:19;;;;;;;25.08;13.95;;;;;;;8.83;69.69;101327.31;5093017;28;20020;-62
2022/03/20 08:46:45;;;;;;;24.80;14.73;;;;;;;8.59;70.53;101325.63;5092926;28;20523;-62
2022/03/20 08:49:10;;;;;;;27.13;13.40;;;;;;;8.40;73.29;101333.66;5095413;28;20111;-62
2022/03/20 08:51:40;;;;;;;25.15;14.60;;;;;;;8.46;73.50;101317.72;5093098;28;20556;-62
2022/03/20 08:54:06;;;;;;;24.50;14.15;;;;;;;8.41;74.59;101335.41;5107758;28;20034;-62
2022/03/20 08:56:33;;;;;;;28.58;16.23;;;;;;;8.42;74.80;101332.75;5113067;28;20031;-62
2022/03/20 08:58:59;;;;;;;34.70;19.15;;;;;;;8.36;76.48;101331.91;5112627;28;20028;-62
2022/03/20 09:01:25;;;;;;;37.78;20.45;;;;;;;8.48;77.29;101331.88;5112927;28;20077;-62
2022/03/20 09:03:52;;;;;;;26.33;15.13;;;;;;;8.52;77.90;101330.94;5094488;28;20027;-62
2022/03/20 09:06:18;;;;;;;27.45;14.93;;;;;;;8.47;77.21;101319.47;5112847;28;20088;-62
2022/03/20 09:08:44;;;;;;;25.42;13.98;;;;;;;8.53;76.93;101320.38;5112901;28;20554;-62
2022/03/20 09:11:09;;;;;;;29.30;14.63;;;;;;;8.66;78.13;101316.78;5096953;28;20111;-62
2022/03/20 09:13:35;;;;;;;27.90;14.93;;;;;;;8.78;77.27;101327.31;5092453;28;20020;-62
2022/03/20 09:19:00;;;;;;;29.08;16.95;;;;;;;9.24;77.68;101320.00;5092088;28;20157;-62
2022/03/20 09:21:27;;;;;;;29.23;14.88;;;;;;;9.65;76.61;101317.03;5092002;28;20023;-62
2022/03/20 09:23:53;;;;;;;29.75;16.25;;;;;;;9.86;75.90;101299.13;5091963;28;20031;-63
2022/03/20 09:26:19;;;;;;;30.02;16.70;;;;;;;10.25;75.50;101309.41;5092052;28;20378;-63
2022/03/20 09:28:45;;;;;;;25.08;13.60;;;;;;;10.46;74.89;101314.47;5090695;28;20490;-63
2022/03/20 09:31:11;;;;;;;22.80;14.20;;;;;;;10.70;73.80;101318.63;5090308;28;20032;-63
2022/03/20 09:33:37;;;;;;;26.02;14.93;;;;;;;10.94;72.32;101317.44;5092091;28;20391;-63
2022/03/20 09:36:02;;;;;;;24.75;14.05;;;;;;;11.21;71.03;101317.94;5091220;28;20086;-63
2022/03/20 09:38:28;;;;;;;26.00;14.63;;;;;;;11.48;67.22;101316.66;5094077;28;20043;-63
2022/03/20 09:40:54;;;;;;;24.83;13.98;;;;;;;11.84;65.87;101316.94;5092520;28;20095;-63
2022/03/20 09:43:20;;;;;;;24.15;14.55;;;;;;;12.42;65.37;101314.09;5097326;28;20024;-63
2022/03/20 09:45:48;;;;;;;23.83;14.07;;;;;;;12.99;62.68;101307.56;5091844;28;20024;-63
2022/03/20 09:48:15;;;;;;;19.17;13.07;;;;;;;13.56;60.22;101310.72;5090849;28;20028;-63
2022/03/20 09:50:42;;;;;;;23.80;13.13;;;;;;;14.26;57.54;101307.16;5089580;28;20454;-63
2022/03/20 09:53:08;;;;;;;21.23;12.90;;;;;;;15.25;55.21;101304.22;5091730;28;20478;-64
2022/03/20 09:55:33;;;;;;;27.05;14.23;;;;;;;15.31;51.20;101314.75;5091590;28;20108;-64
2022/03/20 09:57:59;;;;;;;28.13;13.63;;;;;;;15.47;51.96;101297.28;5091396;28;20399;-64
2022/03/20 10:00:25;;;;;;;22.30;14.02;;;;;;;16.34;50.40;101295.19;5090996;28;20368;-63
2022/03/20 10:02:52;;;;;;;27.98;13.73;;;;;;;17.01;49.45;101286.41;5091335;28;20511;-63
2022/03/20 10:05:22;;;;;;;22.67;13.48;;;;;;;17.27;47.64;101286.25;5091190;28;20475;-63
2022/03/20 10:07:47;;;;;;;24.55;15.57;;;;;;;17.93;47.09;101288.91;5091317;28;20035;-63
2022/03/20 10:10:28;;;;;;;25.20;14.13;;;;;;;17.60;45.57;101292.13;5093478;28;20024;-63
2022/03/20 10:12:57;;;;;;;24.50;12.80;;;;;;;18.00;46.70;101294.91;5093844;28;20028;-63
2022/03/20 10:15:33;;;;;;;25.48;14.18;;;;;;;18.72;45.08;101289.00;5089909;28;20020;-63
2022/03/20 10:18:09;;;;;;;23.50;14.02;;;;;;;19.25;45.91;101291.88;4886996;28;20031;-63
2022/03/20 10:20:37;;;;;;;24.90;12.98;;;;;;;19.65;44.57;101281.78;5091609;28;20047;-64
2022/03/20 10:23:04;;;;;;;23.90;13.77;;;;;;;20.08;42.94;101283.19;5090222;28;20036;-64
2022/03/20 10:25:30;;;;;;;22.08;12.43;;;;;;;20.29;42.11;101290.22;5092300;28;20375;-64
2022/03/20 10:27:57;;;;;;;22.42;13.82;;;;;;;20.67;43.59;101280.94;5091492;28;20034;-63
2022/03/20 10:30:23;;;;;;;23.73;12.88;;;;;;;20.66;42.14;101284.59;5092726;28;20016;-63
2022/03/20 10:32:51;;;;;;;25.70;12.82;;;;;;;20.65;42.62;101285.56;5092155;28;20040;-63
2022/03/20 10:35:17;;;;;;;21.63;12.52;;;;;;;21.16;42.21;101278.28;5088858;28;20074;-63
2022/03/20 10:37:48;;;;;;;23.30;12.38;;;;;;;21.44;39.59;101276.63;5090340;28;20107;-63
2022/03/20 10:40:17;;;;;;;23.90;14.45;;;;;;;21.26;42.08;101274.09;5089953;28;20071;-63
2022/03/20 10:43:03;;;;;;;22.45;13.13;;;;;;;21.05;40.58;101286.13;5097363;28;20099;-63
2022/03/20 10:45:29;;;;;;;24.75;12.95;;;;;;;20.69;42.28;101275.47;5091247;28;20044;-63
2022/03/20 10:48:01;;;;;;;18.90;12.40;;;;;;;20.97;40.62;101277.53;5107483;28;20062;-63
2022/03/20 10:50:27;;;;;;;18.50;11.27;;;;;;;20.98;39.69;101280.19;5109032;28;20047;-63
2022/03/20 10:53:08;;;;;;;22.63;12.65;;;;;;;20.97;41.70;101278.44;5108751;28;20112;-63
2022/03/20 10:55:33;;;;;;;21.80;11.93;;;;;;;21.45;39.10;101272.09;5109503;28;20102;-63
2022/03/20 10:58:20;;;;;;;25.35;12.90;;;;;;;21.18;40.27;101271.84;5110267;28;20161;-63
2022/03/20 11:00:46;;;;;;;23.60;12.95;;;;;;;21.57;40.64;101263.25;5110596;28;20382;-63
2022/03/20 11:03:19;;;;;;;22.77;12.32;;;;;;;21.74;39.08;101260.44;5110611;28;20420;-63
2022/03/20 11:05:45;;;;;;;19.10;11.73;;;;;;;22.16;40.03;101264.22;5110657;28;20023;-63
2022/03/20 11:08:11;;;;;;;21.77;12.52;;;;;;;22.47;37.69;101260.47;5110823;28;20038;-63
2022/03/20 11:10:37;;;;;;;17.13;11.10;;;;;;;22.67;37.75;101270.16;5100072;28;20020;-63
2022/03/20 11:13:05;;;;;;;21.52;11.50;;;;;;;23.04;38.22;101256.88;5090101;28;20038;-63
2022/03/20 11:15:33;;;;;;;23.90;12.68;;;;;;;23.68;36.79;101258.09;5090405;28;20028;-63
2022/03/20 11:17:59;;;;;;;26.80;13.85;;;;;;;23.96;36.63;101255.25;5106060;28;20023;-63
2022/03/20 11:20:28;;;;;;;21.33;12.38;;;;;;;23.97;36.56;101252.44;5108481;28;20019;-63
2022/03/20 11:22:54;;;;;;;19.80;11.98;;;;;;;24.06;36.94;101249.13;5109931;28;20027;-63
2022/03/20 11:25:25;;;;;;;20.45;11.65;;;;;;;24.19;36.50;101251.84;5110191;28;20030;-63
2022/03/20 11:27:59;;;;;;;19.60;12.05;;;;;;;24.38;36.64;101242.31;5110611;28;20079;-63
2022/03/20 11:30:30;;;;;;;19.60;11.55;;;;;;;24.35;35.45;101244.38;5110014;28;20028;-63
2022/03/20 11:32:57;;;;;;;17.77;10.52;;;;;;;24.65;35.67;101245.81;5111513;28;20027;-64
2022/03/20 11:35:30;;;;;;;23.77;12.95;;;;;;;24.88;36.05;101241.47;5115024;27;20055;-63
2022/03/20 11:37:58;;;;;;;20.13;12.60;;;;;;;24.79;34.31;101241.25;5107263;28;20023;-63
2022/03/20 11:40:26;;;;;;;24.70;12.85;;;;;;;24.19;35.25;101235.53;5108239;28;20020;-63
2022/03/20 11:43:10;;;;;;;19.75;10.77;;;;;;;24.46;35.15;101239.91;5103077;28;20047;-63
2022/03/20 11:45:35;;;;;;;19.92;11.10;;;;;;;24.07;35.13;101233.69;5096509;28;20543;-63